sensor_id;sensor_type;location;lat;lon;timestamp;P1;durP1;ratioP1;P2;durP2;ratioP2
82163;SDS011;71736;38.734;-9.138;2023-08-01T00:00:32;2.00;;;0.90;;
82163;SDS011;71736;38.734;-9.138;2023-08-01T00:02:59;2.70;;;1.00;;
82163;SDS011;71736;38.734;-9.138;2023-08-01T00:05:24;1.70;;;0.80;;
82163;SDS011;71736;38.734;-9.138;2023-08-01T00:07:50;2.60;;;1.00;;
82163;SDS011;71736;38.734;-9.138;2023-08-01T00:10:15;2.80;;;1.10;;
82163;SDS011;71736;38.734;-9.138;2023-08-01T00:12:41;2.10;;;1.20;;
82163;SDS011;71736;38.734;-9.138;2023-08-01T00:15:07;1.90;;;0.90;;
82163;SDS011;71736;38.734;-9.138;2023-08-01T00:17:34;3.30;;;0.90;;
82163;SDS011;71736;38.734;-9.138;2023-08-01T00:20:00;4.60;;;1.40;;
82163;SDS011;71736;38.734;-9.138;2023-08-01T00:22:26;3.10;;;1.40;;
82163;SDS011;71736;38.734;-9.138;2023-08-01T00:24:52;3.50;;;1.60;;
82163;SDS011;71736;38.734;-9.138;2023-08-01T00:27:17;2.20;;;1.00;;
82163;SDS011;71736;38.734;-9.138;2023-08-01T00:29:43;1.70;;;0.80;;
82163;SDS011;71736;38.734;-9.138;2023-08-01T00:32:10;2.90;;;1.10;;
82163;SDS011;71736;38.734;-9.138;2023-08-01T00:34:35;2.70;;;1.30;;
82163;SDS011;71736;38.734;-9.138;2023-08-01T00:37:01;2.50;;;0.80;;
82163;SDS011;71736;38.734;-9.138;2023-08-01T00:39:26;1.80;;;0.90;;
82163;SDS011;71736;38.734;-9.138;2023-08-01T00:41:52;1.60;;;0.60;;
82163;SDS011;71736;38.734;-9.138;2023-08-01T00:44:17;1.50;;;0.60;;
82163;SDS011;71736;38.734;-9.138;2023-08-01T00:46:43;3.30;;;0.90;;
82163;SDS011;71736;38.734;-9.138;2023-08-01T00:49:09;2.40;;;0.80;;
82163;SDS011;71736;38.734;-9.138;2023-08-01T00:51:35;2.20;;;1.00;;
82163;SDS011;71736;38.734;-9.138;2023-08-01T00:54:01;3.00;;;1.00;;
82163;SDS011;71736;38.734;-9.138;2023-08-01T00:56:26;1.80;;;1.00;;
82163;SDS011;71736;38.734;-9.138;2023-08-01T00:58:52;2.10;;;1.20;;
82163;SDS011;71736;38.734;-9.138;2023-08-01T01:01:18;2.60;;;1.30;;
82163;SDS011;71736;38.734;-9.138;2023-08-01T01:03:43;4.20;;;1.60;;
82163;SDS011;71736;38.734;-9.138;2023-08-01T01:06:11;3.30;;;1.60;;
82163;SDS011;71736;38.734;-9.138;2023-08-01T01:08:43;2.40;;;1.40;;
82163;SDS011;71736;38.734;-9.138;2023-08-01T01:11:09;3.40;;;2.10;;
82163;SDS011;71736;38.734;-9.138;2023-08-01T01:13:34;4.10;;;2.20;;
82163;SDS011;71736;38.734;-9.138;2023-08-01T01:16:00;3.30;;;1.60;;
82163;SDS011;71736;38.734;-9.138;2023-08-01T01:18:25;2.20;;;1.20;;
82163;SDS011;71736;38.734;-9.138;2023-08-01T01:20:51;1.90;;;1.00;;
82163;SDS011;71736;38.734;-9.138;2023-08-01T01:23:17;2.90;;;1.00;;
82163;SDS011;71736;38.734;-9.138;2023-08-01T01:25:43;2.30;;;0.90;;
82163;SDS011;71736;38.734;-9.138;2023-08-01T01:28:10;1.70;;;0.90;;
82163;SDS011;71736;38.734;-9.138;2023-08-01T01:30:36;1.40;;;0.60;;
82163;SDS011;71736;38.734;-9.138;2023-08-01T01:33:03;1.60;;;0.70;;
82163;SDS011;71736;38.734;-9.138;2023-08-01T01:35:29;2.00;;;0.40;;
82163;SDS011;71736;38.734;-9.138;2023-08-01T01:37:55;1.10;;;0.50;;
82163;SDS011;71736;38.734;-9.138;2023-08-01T01:40:20;1.30;;;0.40;;
82163;SDS011;71736;38.734;-9.138;2023-08-01T01:42:46;2.40;;;0.60;;
82163;SDS011;71736;38.734;-9.138;2023-08-01T01:45:13;1.50;;;0.50;;
82163;SDS011;71736;38.734;-9.138;2023-08-01T01:47:39;1.00;;;0.40;;
82163;SDS011;71736;38.734;-9.138;2023-08-01T01:50:04;1.20;;;0.40;;
82163;SDS011;71736;38.734;-9.138;2023-08-01T01:52:30;0.90;;;0.30;;
82163;SDS011;71736;38.734;-9.138;2023-08-01T01:54:56;1.10;;;0.50;;
82163;SDS011;71736;38.734;-9.138;2023-08-01T01:57:21;1.30;;;0.40;;
82163;SDS011;71736;38.734;-9.138;2023-08-01T01:59:47;1.10;;;0.40;;
82163;SDS011;71736;38.734;-9.138;2023-08-01T02:02:12;0.90;;;0.40;;
82163;SDS011;71736;38.734;-9.138;2023-08-01T02:04:39;1.70;;;0.70;;
82163;SDS011;71736;38.734;-9.138;2023-08-01T02:07:05;1.50;;;0.50;;
82163;SDS011;71736;38.734;-9.138;2023-08-01T02:09:30;0.80;;;0.20;;
82163;SDS011;71736;38.734;-9.138;2023-08-01T02:11:56;0.80;;;0.30;;
82163;SDS011;71736;38.734;-9.138;2023-08-01T02:14:21;1.10;;;0.40;;
82163;SDS011;71736;38.734;-9.138;2023-08-01T02:16:47;1.10;;;0.40;;
82163;SDS011;71736;38.734;-9.138;2023-08-01T02:19:12;1.00;;;0.30;;
82163;SDS011;71736;38.734;-9.138;2023-08-01T02:21:38;2.50;;;0.70;;
82163;SDS011;71736;38.734;-9.138;2023-08-01T02:24:03;1.40;;;0.40;;
82163;SDS011;71736;38.734;-9.138;2023-08-01T02:26:30;0.80;;;0.30;;
82163;SDS011;71736;38.734;-9.138;2023-08-01T02:31:21;0.90;;;0.20;;
82163;SDS011;71736;38.734;-9.138;2023-08-01T02:33:46;1.70;;;0.50;;
82163;SDS011;71736;38.734;-9.138;2023-08-01T02:36:12;0.50;;;0.20;;
82163;SDS011;71736;38.734;-9.138;2023-08-01T02:38:37;0.50;;;0.40;;
82163;SDS011;71736;38.734;-9.138;2023-08-01T02:41:03;0.80;;;0.20;;
82163;SDS011;71736;38.734;-9.138;2023-08-01T02:43:28;1.00;;;0.30;;
82163;SDS011;71736;38.734;-9.138;2023-08-01T02:45:54;0.90;;;0.20;;
82163;SDS011;71736;38.734;-9.138;2023-08-01T02:48:19;0.50;;;0.10;;
82163;SDS011;71736;38.734;-9.138;2023-08-01T02:50:45;1.10;;;0.30;;
82163;SDS011;71736;38.734;-9.138;2023-08-01T02:53:11;0.60;;;0.20;;
82163;SDS011;71736;38.734;-9.138;2023-08-01T02:55:36;1.30;;;0.40;;
82163;SDS011;71736;38.734;-9.138;2023-08-01T02:58:02;1.30;;;0.40;;
82163;SDS011;71736;38.734;-9.138;2023-08-01T03:00:27;1.00;;;0.30;;
82163;SDS011;71736;38.734;-9.138;2023-08-01T03:02:53;0.40;;;0.20;;
82163;SDS011;71736;38.734;-9.138;2023-08-01T03:05:18;2.10;;;0.50;;
82163;SDS011;71736;38.734;-9.138;2023-08-01T03:07:44;0.80;;;0.30;;
82163;SDS011;71736;38.734;-9.138;2023-08-01T03:10:09;0.70;;;0.30;;
82163;SDS011;71736;38.734;-9.138;2023-08-01T03:15:02;0.40;;;0.10;;
82163;SDS011;71736;38.734;-9.138;2023-08-01T03:17:28;0.60;;;0.20;;
82163;SDS011;71736;38.734;-9.138;2023-08-01T03:19:54;1.50;;;0.50;;
82163;SDS011;71736;38.734;-9.138;2023-08-01T03:22:19;0.80;;;0.40;;
82163;SDS011;71736;38.734;-9.138;2023-08-01T03:24:45;0.60;;;0.20;;
82163;SDS011;71736;38.734;-9.138;2023-08-01T03:27:10;0.90;;;0.50;;
82163;SDS011;71736;38.734;-9.138;2023-08-01T03:29:36;0.80;;;0.30;;
82163;SDS011;71736;38.734;-9.138;2023-08-01T03:32:01;1.50;;;0.40;;
82163;SDS011;71736;38.734;-9.138;2023-08-01T03:34:27;0.90;;;0.40;;
82163;SDS011;71736;38.734;-9.138;2023-08-01T03:36:53;2.00;;;0.40;;
82163;SDS011;71736;38.734;-9.138;2023-08-01T03:39:18;0.50;;;0.20;;
82163;SDS011;71736;38.734;-9.138;2023-08-01T03:44:10;1.60;;;0.30;;
82163;SDS011;71736;38.734;-9.138;2023-08-01T03:46:35;1.80;;;0.40;;
82163;SDS011;71736;38.734;-9.138;2023-08-01T03:49:01;0.90;;;0.30;;
82163;SDS011;71736;38.734;-9.138;2023-08-01T03:51:26;1.50;;;0.40;;
82163;SDS011;71736;38.734;-9.138;2023-08-01T03:53:52;1.40;;;0.40;;
82163;SDS011;71736;38.734;-9.138;2023-08-01T03:56:17;1.70;;;0.60;;
82163;SDS011;71736;38.734;-9.138;2023-08-01T03:58:43;0.50;;;0.10;;
82163;SDS011;71736;38.734;-9.138;2023-08-01T04:01:08;0.50;;;0.30;;
82163;SDS011;71736;38.734;-9.138;2023-08-01T04:03:34;0.70;;;0.30;;
82163;SDS011;71736;38.734;-9.138;2023-08-01T04:05:59;1.30;;;0.50;;
82163;SDS011;71736;38.734;-9.138;2023-08-01T04:08:25;1.60;;;0.40;;
82163;SDS011;71736;38.734;-9.138;2023-08-01T04:10:50;1.10;;;0.50;;
82163;SDS011;71736;38.734;-9.138;2023-08-01T04:13:16;1.50;;;0.50;;
82163;SDS011;71736;38.734;-9.138;2023-08-01T04:15:41;1.50;;;0.50;;
82163;SDS011;71736;38.734;-9.138;2023-08-01T04:18:07;2.20;;;0.80;;
82163;SDS011;71736;38.734;-9.138;2023-08-01T04:20:32;1.60;;;0.60;;
82163;SDS011;71736;38.734;-9.138;2023-08-01T04:22:58;2.60;;;0.80;;
82163;SDS011;71736;38.734;-9.138;2023-08-01T04:25:24;2.20;;;0.80;;
82163;SDS011;71736;38.734;-9.138;2023-08-01T04:27:52;1.80;;;0.70;;
82163;SDS011;71736;38.734;-9.138;2023-08-01T04:30:17;2.20;;;0.70;;
82163;SDS011;71736;38.734;-9.138;2023-08-01T04:32:43;2.10;;;0.80;;
82163;SDS011;71736;38.734;-9.138;2023-08-01T04:35:08;1.80;;;0.90;;
82163;SDS011;71736;38.734;-9.138;2023-08-01T04:37:34;2.30;;;0.70;;
82163;SDS011;71736;38.734;-9.138;2023-08-01T04:39:59;2.40;;;1.10;;
82163;SDS011;71736;38.734;-9.138;2023-08-01T04:42:25;2.00;;;0.80;;
82163;SDS011;71736;38.734;-9.138;2023-08-01T04:44:50;2.20;;;0.90;;
82163;SDS011;71736;38.734;-9.138;2023-08-01T04:47:17;2.90;;;1.00;;
82163;SDS011;71736;38.734;-9.138;2023-08-01T04:49:42;2.60;;;1.10;;
82163;SDS011;71736;38.734;-9.138;2023-08-01T04:52:08;2.70;;;1.30;;
82163;SDS011;71736;38.734;-9.138;2023-08-01T04:54:33;2.50;;;1.10;;
82163;SDS011;71736;38.734;-9.138;2023-08-01T04:56:59;3.60;;;1.30;;
82163;SDS011;71736;38.734;-9.138;2023-08-01T04:59:24;3.70;;;1.50;;
82163;SDS011;71736;38.734;-9.138;2023-08-01T05:01:50;3.20;;;1.50;;
82163;SDS011;71736;38.734;-9.138;2023-08-01T05:04:15;3.40;;;1.40;;
82163;SDS011;71736;38.734;-9.138;2023-08-01T05:06:41;3.20;;;1.50;;
82163;SDS011;71736;38.734;-9.138;2023-08-01T05:09:06;3.80;;;1.70;;
82163;SDS011;71736;38.734;-9.138;2023-08-01T05:11:32;5.10;;;1.90;;
82163;SDS011;71736;38.734;-9.138;2023-08-01T05:13:57;3.60;;;1.60;;
82163;SDS011;71736;38.734;-9.138;2023-08-01T05:16:23;5.20;;;2.30;;
82163;SDS011;71736;38.734;-9.138;2023-08-01T05:18:48;4.80;;;1.70;;
82163;SDS011;71736;38.734;-9.138;2023-08-01T05:21:14;3.20;;;1.60;;
82163;SDS011;71736;38.734;-9.138;2023-08-01T05:23:39;5.00;;;1.90;;
82163;SDS011;71736;38.734;-9.138;2023-08-01T05:26:05;4.30;;;1.90;;
82163;SDS011;71736;38.734;-9.138;2023-08-01T05:28:30;4.40;;;1.80;;
82163;SDS011;71736;38.734;-9.138;2023-08-01T05:30:56;4.20;;;2.10;;
82163;SDS011;71736;38.734;-9.138;2023-08-01T05:33:21;3.40;;;1.90;;
82163;SDS011;71736;38.734;-9.138;2023-08-01T05:35:48;5.00;;;2.30;;
82163;SDS011;71736;38.734;-9.138;2023-08-01T05:38:14;6.60;;;2.20;;
82163;SDS011;71736;38.734;-9.138;2023-08-01T05:40:39;4.30;;;1.80;;
82163;SDS011;71736;38.734;-9.138;2023-08-01T05:43:05;5.80;;;2.20;;
82163;SDS011;71736;38.734;-9.138;2023-08-01T05:45:34;5.20;;;2.30;;
82163;SDS011;71736;38.734;-9.138;2023-08-01T05:48:00;4.30;;;2.00;;
82163;SDS011;71736;38.734;-9.138;2023-08-01T05:52:51;6.90;;;2.70;;
82163;SDS011;71736;38.734;-9.138;2023-08-01T05:55:17;3.90;;;2.40;;
82163;SDS011;71736;38.734;-9.138;2023-08-01T05:57:42;4.90;;;2.40;;
82163;SDS011;71736;38.734;-9.138;2023-08-01T06:00:08;4.80;;;2.10;;
82163;SDS011;71736;38.734;-9.138;2023-08-01T06:02:34;7.80;;;2.50;;
82163;SDS011;71736;38.734;-9.138;2023-08-01T06:05:00;4.20;;;1.90;;
82163;SDS011;71736;38.734;-9.138;2023-08-01T06:07:25;5.50;;;2.50;;
82163;SDS011;71736;38.734;-9.138;2023-08-01T06:09:51;6.30;;;2.90;;
82163;SDS011;71736;38.734;-9.138;2023-08-01T06:12:17;5.30;;;2.50;;
82163;SDS011;71736;38.734;-9.138;2023-08-01T06:14:43;7.20;;;3.10;;
82163;SDS011;71736;38.734;-9.138;2023-08-01T06:17:09;7.10;;;2.80;;
82163;SDS011;71736;38.734;-9.138;2023-08-01T06:19:35;4.90;;;2.20;;
82163;SDS011;71736;38.734;-9.138;2023-08-01T06:22:00;6.50;;;2.80;;
82163;SDS011;71736;38.734;-9.138;2023-08-01T06:24:26;5.40;;;2.60;;
82163;SDS011;71736;38.734;-9.138;2023-08-01T06:26:51;5.30;;;2.70;;
82163;SDS011;71736;38.734;-9.138;2023-08-01T06:29:17;5.60;;;2.60;;
82163;SDS011;71736;38.734;-9.138;2023-08-01T06:31:42;5.30;;;2.60;;
82163;SDS011;71736;38.734;-9.138;2023-08-01T06:34:08;10.20;;;2.80;;
82163;SDS011;71736;38.734;-9.138;2023-08-01T06:36:33;7.20;;;3.00;;
82163;SDS011;71736;38.734;-9.138;2023-08-01T06:41:25;4.90;;;2.50;;
82163;SDS011;71736;38.734;-9.138;2023-08-01T06:43:51;7.30;;;3.10;;
82163;SDS011;71736;38.734;-9.138;2023-08-01T06:46:16;8.30;;;3.00;;
82163;SDS011;71736;38.734;-9.138;2023-08-01T06:48:42;6.60;;;3.80;;
82163;SDS011;71736;38.734;-9.138;2023-08-01T06:51:07;5.50;;;3.00;;
82163;SDS011;71736;38.734;-9.138;2023-08-01T06:53:33;7.40;;;3.10;;
82163;SDS011;71736;38.734;-9.138;2023-08-01T06:55:58;7.40;;;3.20;;
82163;SDS011;71736;38.734;-9.138;2023-08-01T06:58:24;8.40;;;3.40;;
82163;SDS011;71736;38.734;-9.138;2023-08-01T07:00:49;7.40;;;3.20;;
82163;SDS011;71736;38.734;-9.138;2023-08-01T07:03:15;7.70;;;3.00;;
82163;SDS011;71736;38.734;-9.138;2023-08-01T07:05:40;6.20;;;3.40;;
82163;SDS011;71736;38.734;-9.138;2023-08-01T07:08:06;5.60;;;3.10;;
82163;SDS011;71736;38.734;-9.138;2023-08-01T07:10:34;6.90;;;3.80;;
82163;SDS011;71736;38.734;-9.138;2023-08-01T07:13:00;6.00;;;3.20;;
82163;SDS011;71736;38.734;-9.138;2023-08-01T07:15:29;6.60;;;3.40;;
82163;SDS011;71736;38.734;-9.138;2023-08-01T07:17:55;7.00;;;3.50;;
82163;SDS011;71736;38.734;-9.138;2023-08-01T07:20:20;5.00;;;2.70;;
82163;SDS011;71736;38.734;-9.138;2023-08-01T07:22:46;6.20;;;2.70;;
82163;SDS011;71736;38.734;-9.138;2023-08-01T07:25:11;6.10;;;3.00;;
82163;SDS011;71736;38.734;-9.138;2023-08-01T07:27:37;6.50;;;2.90;;
82163;SDS011;71736;38.734;-9.138;2023-08-01T07:30:03;5.40;;;3.20;;
82163;SDS011;71736;38.734;-9.138;2023-08-01T07:32:30;5.50;;;2.90;;
82163;SDS011;71736;38.734;-9.138;2023-08-01T07:34:55;6.20;;;3.30;;
82163;SDS011;71736;38.734;-9.138;2023-08-01T07:37:21;7.80;;;3.40;;
82163;SDS011;71736;38.734;-9.138;2023-08-01T07:39:47;5.80;;;3.20;;
82163;SDS011;71736;38.734;-9.138;2023-08-01T07:42:12;6.40;;;2.90;;
82163;SDS011;71736;38.734;-9.138;2023-08-01T07:44:38;7.00;;;3.20;;
82163;SDS011;71736;38.734;-9.138;2023-08-01T07:47:03;5.60;;;2.80;;
82163;SDS011;71736;38.734;-9.138;2023-08-01T07:49:29;6.70;;;3.00;;
82163;SDS011;71736;38.734;-9.138;2023-08-01T07:51:55;7.60;;;3.30;;
82163;SDS011;71736;38.734;-9.138;2023-08-01T07:54:20;7.00;;;3.10;;
82163;SDS011;71736;38.734;-9.138;2023-08-01T07:56:46;5.70;;;2.60;;
82163;SDS011;71736;38.734;-9.138;2023-08-01T07:59:14;5.10;;;2.80;;
82163;SDS011;71736;38.734;-9.138;2023-08-01T08:01:39;5.30;;;2.50;;
82163;SDS011;71736;38.734;-9.138;2023-08-01T08:04:05;6.70;;;3.00;;
82163;SDS011;71736;38.734;-9.138;2023-08-01T08:06:31;5.20;;;3.30;;
82163;SDS011;71736;38.734;-9.138;2023-08-01T08:08:56;7.20;;;3.20;;
82163;SDS011;71736;38.734;-9.138;2023-08-01T08:11:22;6.10;;;2.50;;
82163;SDS011;71736;38.734;-9.138;2023-08-01T08:13:48;6.90;;;3.10;;
82163;SDS011;71736;38.734;-9.138;2023-08-01T08:16:14;5.10;;;2.40;;
82163;SDS011;71736;38.734;-9.138;2023-08-01T08:18:39;5.30;;;2.90;;
82163;SDS011;71736;38.734;-9.138;2023-08-01T08:21:05;5.10;;;2.40;;
82163;SDS011;71736;38.734;-9.138;2023-08-01T08:23:30;4.10;;;2.50;;
82163;SDS011;71736;38.734;-9.138;2023-08-01T08:25:56;7.60;;;3.40;;
82163;SDS011;71736;38.734;-9.138;2023-08-01T08:28:31;5.00;;;2.90;;
82163;SDS011;71736;38.734;-9.138;2023-08-01T08:30:59;6.70;;;2.90;;
82163;SDS011;71736;38.734;-9.138;2023-08-01T08:33:27;6.50;;;3.00;;
82163;SDS011;71736;38.734;-9.138;2023-08-01T08:35:52;6.20;;;2.70;;
82163;SDS011;71736;38.734;-9.138;2023-08-01T08:38:18;6.00;;;2.70;;
82163;SDS011;71736;38.734;-9.138;2023-08-01T08:40:56;5.40;;;2.70;;
82163;SDS011;71736;38.734;-9.138;2023-08-01T08:43:23;6.30;;;2.60;;
82163;SDS011;71736;38.734;-9.138;2023-08-01T08:48:17;5.00;;;2.50;;
82163;SDS011;71736;38.734;-9.138;2023-08-01T08:50:45;4.70;;;2.10;;
82163;SDS011;71736;38.734;-9.138;2023-08-01T08:53:11;6.60;;;3.40;;
82163;SDS011;71736;38.734;-9.138;2023-08-01T08:55:41;5.80;;;2.80;;
82163;SDS011;71736;38.734;-9.138;2023-08-01T08:58:07;7.00;;;2.40;;
82163;SDS011;71736;38.734;-9.138;2023-08-01T09:00:35;5.40;;;2.20;;
82163;SDS011;71736;38.734;-9.138;2023-08-01T09:03:01;3.60;;;2.00;;
82163;SDS011;71736;38.734;-9.138;2023-08-01T09:05:27;5.60;;;1.80;;
82163;SDS011;71736;38.734;-9.138;2023-08-01T09:07:55;6.20;;;2.20;;
82163;SDS011;71736;38.734;-9.138;2023-08-01T09:10:23;3.80;;;2.30;;
82163;SDS011;71736;38.734;-9.138;2023-08-01T09:12:48;5.10;;;2.30;;
82163;SDS011;71736;38.734;-9.138;2023-08-01T09:15:14;6.00;;;2.10;;
82163;SDS011;71736;38.734;-9.138;2023-08-01T09:17:54;4.60;;;1.80;;
82163;SDS011;71736;38.734;-9.138;2023-08-01T09:20:26;6.50;;;2.50;;
82163;SDS011;71736;38.734;-9.138;2023-08-01T09:22:53;4.50;;;1.90;;
82163;SDS011;71736;38.734;-9.138;2023-08-01T09:25:18;3.70;;;1.60;;
82163;SDS011;71736;38.734;-9.138;2023-08-01T09:27:44;3.90;;;1.80;;
82163;SDS011;71736;38.734;-9.138;2023-08-01T09:30:10;4.40;;;1.90;;
82163;SDS011;71736;38.734;-9.138;2023-08-01T09:32:40;4.40;;;2.20;;
82163;SDS011;71736;38.734;-9.138;2023-08-01T09:35:06;6.00;;;1.80;;
82163;SDS011;71736;38.734;-9.138;2023-08-01T09:37:41;5.30;;;2.30;;
82163;SDS011;71736;38.734;-9.138;2023-08-01T09:40:08;7.60;;;2.00;;
82163;SDS011;71736;38.734;-9.138;2023-08-01T09:42:41;3.90;;;1.50;;
82163;SDS011;71736;38.734;-9.138;2023-08-01T09:45:17;4.00;;;1.80;;
82163;SDS011;71736;38.734;-9.138;2023-08-01T09:47:43;3.10;;;1.30;;
82163;SDS011;71736;38.734;-9.138;2023-08-01T09:50:10;4.80;;;1.50;;
82163;SDS011;71736;38.734;-9.138;2023-08-01T09:52:38;3.60;;;1.60;;
82163;SDS011;71736;38.734;-9.138;2023-08-01T09:55:04;3.70;;;1.70;;
82163;SDS011;71736;38.734;-9.138;2023-08-01T09:57:30;4.00;;;1.60;;
82163;SDS011;71736;38.734;-9.138;2023-08-01T10:02:24;3.10;;;1.60;;
82163;SDS011;71736;38.734;-9.138;2023-08-01T10:04:52;8.80;;;2.30;;
82163;SDS011;71736;38.734;-9.138;2023-08-01T10:07:20;4.20;;;2.10;;
82163;SDS011;71736;38.734;-9.138;2023-08-01T10:09:50;3.70;;;1.60;;
82163;SDS011;71736;38.734;-9.138;2023-08-01T10:12:15;4.70;;;2.00;;
82163;SDS011;71736;38.734;-9.138;2023-08-01T10:14:43;4.30;;;1.60;;
82163;SDS011;71736;38.734;-9.138;2023-08-01T10:17:10;3.90;;;2.10;;
82163;SDS011;71736;38.734;-9.138;2023-08-01T10:19:36;5.20;;;2.40;;
82163;SDS011;71736;38.734;-9.138;2023-08-01T10:22:03;3.70;;;1.60;;
82163;SDS011;71736;38.734;-9.138;2023-08-01T10:24:29;4.90;;;2.30;;
82163;SDS011;71736;38.734;-9.138;2023-08-01T10:26:55;4.20;;;1.70;;
82163;SDS011;71736;38.734;-9.138;2023-08-01T10:29:21;3.60;;;1.40;;
82163;SDS011;71736;38.734;-9.138;2023-08-01T10:31:53;3.80;;;2.10;;
82163;SDS011;71736;38.734;-9.138;2023-08-01T10:34:19;5.20;;;1.90;;
82163;SDS011;71736;38.734;-9.138;2023-08-01T10:36:56;4.60;;;2.10;;
82163;SDS011;71736;38.734;-9.138;2023-08-01T10:39:24;3.80;;;2.00;;
82163;SDS011;71736;38.734;-9.138;2023-08-01T10:42:01;5.50;;;2.20;;
82163;SDS011;71736;38.734;-9.138;2023-08-01T10:44:28;4.50;;;2.10;;
82163;SDS011;71736;38.734;-9.138;2023-08-01T10:47:00;5.60;;;2.00;;
82163;SDS011;71736;38.734;-9.138;2023-08-01T10:49:40;5.20;;;1.80;;
82163;SDS011;71736;38.734;-9.138;2023-08-01T10:52:18;5.00;;;2.20;;
82163;SDS011;71736;38.734;-9.138;2023-08-01T10:54:46;4.00;;;2.20;;
82163;SDS011;71736;38.734;-9.138;2023-08-01T10:57:16;4.70;;;2.30;;
82163;SDS011;71736;38.734;-9.138;2023-08-01T10:59:42;5.10;;;2.30;;
82163;SDS011;71736;38.734;-9.138;2023-08-01T11:02:09;5.40;;;2.60;;
82163;SDS011;71736;38.734;-9.138;2023-08-01T11:04:34;4.70;;;2.40;;
82163;SDS011;71736;38.734;-9.138;2023-08-01T11:07:00;5.30;;;2.50;;
82163;SDS011;71736;38.734;-9.138;2023-08-01T11:09:26;7.90;;;2.80;;
82163;SDS011;71736;38.734;-9.138;2023-08-01T11:11:56;4.50;;;2.20;;
82163;SDS011;71736;38.734;-9.138;2023-08-01T11:14:25;4.00;;;2.40;;
82163;SDS011;71736;38.734;-9.138;2023-08-01T11:16:53;6.00;;;2.50;;
82163;SDS011;71736;38.734;-9.138;2023-08-01T11:19:23;6.00;;;2.20;;
82163;SDS011;71736;38.734;-9.138;2023-08-01T11:21:50;3.80;;;1.50;;
82163;SDS011;71736;38.734;-9.138;2023-08-01T11:24:17;3.90;;;2.10;;
82163;SDS011;71736;38.734;-9.138;2023-08-01T11:26:45;4.90;;;2.40;;
82163;SDS011;71736;38.734;-9.138;2023-08-01T11:29:13;4.90;;;2.30;;
82163;SDS011;71736;38.734;-9.138;2023-08-01T11:31:39;5.60;;;2.50;;
82163;SDS011;71736;38.734;-9.138;2023-08-01T11:34:08;4.80;;;2.30;;
82163;SDS011;71736;38.734;-9.138;2023-08-01T11:36:35;5.80;;;2.60;;
82163;SDS011;71736;38.734;-9.138;2023-08-01T11:39:01;7.20;;;3.80;;
82163;SDS011;71736;38.734;-9.138;2023-08-01T11:43:53;6.80;;;4.60;;
82163;SDS011;71736;38.734;-9.138;2023-08-01T11:46:22;6.00;;;2.40;;
82163;SDS011;71736;38.734;-9.138;2023-08-01T11:51:15;7.60;;;4.30;;
82163;SDS011;71736;38.734;-9.138;2023-08-01T11:56:06;6.20;;;3.20;;
82163;SDS011;71736;38.734;-9.138;2023-08-01T11:58:33;5.90;;;2.90;;
82163;SDS011;71736;38.734;-9.138;2023-08-01T12:01:08;6.00;;;2.80;;
82163;SDS011;71736;38.734;-9.138;2023-08-01T12:03:42;4.80;;;2.80;;
82163;SDS011;71736;38.734;-9.138;2023-08-01T12:06:09;5.30;;;2.90;;
82163;SDS011;71736;38.734;-9.138;2023-08-01T12:08:37;5.10;;;2.70;;
82163;SDS011;71736;38.734;-9.138;2023-08-01T12:11:03;8.40;;;4.40;;
82163;SDS011;71736;38.734;-9.138;2023-08-01T12:13:28;5.40;;;2.20;;
82163;SDS011;71736;38.734;-9.138;2023-08-01T12:15:56;4.00;;;2.40;;
82163;SDS011;71736;38.734;-9.138;2023-08-01T12:20:51;5.70;;;2.80;;
82163;SDS011;71736;38.734;-9.138;2023-08-01T12:23:17;5.70;;;2.20;;
82163;SDS011;71736;38.734;-9.138;2023-08-01T12:25:43;4.00;;;2.20;;
82163;SDS011;71736;38.734;-9.138;2023-08-01T12:28:09;4.70;;;2.50;;
82163;SDS011;71736;38.734;-9.138;2023-08-01T12:30:35;6.40;;;2.80;;
82163;SDS011;71736;38.734;-9.138;2023-08-01T12:33:00;8.20;;;1.90;;
82163;SDS011;71736;38.734;-9.138;2023-08-01T12:35:26;6.00;;;2.50;;
82163;SDS011;71736;38.734;-9.138;2023-08-01T12:37:52;6.50;;;3.30;;
82163;SDS011;71736;38.734;-9.138;2023-08-01T12:40:19;9.00;;;4.90;;
82163;SDS011;71736;38.734;-9.138;2023-08-01T12:42:45;7.20;;;2.70;;
82163;SDS011;71736;38.734;-9.138;2023-08-01T12:45:11;6.40;;;3.00;;
82163;SDS011;71736;38.734;-9.138;2023-08-01T12:47:37;5.70;;;2.90;;
82163;SDS011;71736;38.734;-9.138;2023-08-01T12:50:02;6.00;;;2.60;;
82163;SDS011;71736;38.734;-9.138;2023-08-01T12:52:28;4.40;;;3.00;;
82163;SDS011;71736;38.734;-9.138;2023-08-01T12:54:54;6.10;;;2.20;;
82163;SDS011;71736;38.734;-9.138;2023-08-01T12:57:19;6.10;;;2.30;;
82163;SDS011;71736;38.734;-9.138;2023-08-01T12:59:45;6.60;;;2.70;;
82163;SDS011;71736;38.734;-9.138;2023-08-01T13:02:10;4.70;;;2.20;;
82163;SDS011;71736;38.734;-9.138;2023-08-01T13:04:36;6.90;;;2.30;;
82163;SDS011;71736;38.734;-9.138;2023-08-01T13:07:01;4.90;;;2.40;;
82163;SDS011;71736;38.734;-9.138;2023-08-01T13:09:27;6.40;;;2.30;;
82163;SDS011;71736;38.734;-9.138;2023-08-01T13:11:52;5.60;;;2.20;;
82163;SDS011;71736;38.734;-9.138;2023-08-01T13:14:18;5.10;;;2.40;;
82163;SDS011;71736;38.734;-9.138;2023-08-01T13:16:44;5.40;;;2.00;;
82163;SDS011;71736;38.734;-9.138;2023-08-01T13:19:10;6.00;;;2.20;;
82163;SDS011;71736;38.734;-9.138;2023-08-01T13:21:35;6.10;;;2.20;;
82163;SDS011;71736;38.734;-9.138;2023-08-01T13:24:01;5.20;;;1.70;;
82163;SDS011;71736;38.734;-9.138;2023-08-01T13:26:30;5.10;;;2.20;;
82163;SDS011;71736;38.734;-9.138;2023-08-01T13:28:57;4.50;;;2.20;;
82163;SDS011;71736;38.734;-9.138;2023-08-01T13:31:23;4.10;;;2.10;;
82163;SDS011;71736;38.734;-9.138;2023-08-01T13:33:48;5.60;;;2.00;;
82163;SDS011;71736;38.734;-9.138;2023-08-01T13:36:14;4.00;;;1.80;;
82163;SDS011;71736;38.734;-9.138;2023-08-01T13:38:40;4.10;;;1.80;;
82163;SDS011;71736;38.734;-9.138;2023-08-01T13:41:05;3.70;;;1.90;;
82163;SDS011;71736;38.734;-9.138;2023-08-01T13:43:31;6.10;;;2.10;;
82163;SDS011;71736;38.734;-9.138;2023-08-01T13:45:56;4.70;;;1.70;;
82163;SDS011;71736;38.734;-9.138;2023-08-01T13:48:22;3.70;;;2.30;;
82163;SDS011;71736;38.734;-9.138;2023-08-01T13:50:47;5.00;;;1.70;;
82163;SDS011;71736;38.734;-9.138;2023-08-01T13:53:13;4.80;;;2.00;;
82163;SDS011;71736;38.734;-9.138;2023-08-01T13:55:39;3.40;;;1.70;;
82163;SDS011;71736;38.734;-9.138;2023-08-01T13:58:05;3.30;;;1.40;;
82163;SDS011;71736;38.734;-9.138;2023-08-01T14:00:31;5.50;;;1.50;;
82163;SDS011;71736;38.734;-9.138;2023-08-01T14:05:25;4.00;;;2.00;;
82163;SDS011;71736;38.734;-9.138;2023-08-01T14:07:52;4.50;;;1.70;;
82163;SDS011;71736;38.734;-9.138;2023-08-01T14:10:18;4.40;;;1.70;;
82163;SDS011;71736;38.734;-9.138;2023-08-01T14:12:44;3.50;;;1.70;;
82163;SDS011;71736;38.734;-9.138;2023-08-01T14:15:10;4.20;;;1.80;;
82163;SDS011;71736;38.734;-9.138;2023-08-01T14:17:36;6.40;;;1.50;;
82163;SDS011;71736;38.734;-9.138;2023-08-01T14:20:03;3.20;;;1.50;;
82163;SDS011;71736;38.734;-9.138;2023-08-01T14:22:30;4.00;;;1.40;;
82163;SDS011;71736;38.734;-9.138;2023-08-01T14:24:55;5.50;;;1.70;;
82163;SDS011;71736;38.734;-9.138;2023-08-01T14:27:21;3.90;;;1.60;;
82163;SDS011;71736;38.734;-9.138;2023-08-01T14:32:12;3.30;;;1.30;;
82163;SDS011;71736;38.734;-9.138;2023-08-01T14:34:38;3.10;;;1.30;;
82163;SDS011;71736;38.734;-9.138;2023-08-01T14:37:04;3.50;;;1.80;;
82163;SDS011;71736;38.734;-9.138;2023-08-01T14:39:29;3.00;;;1.40;;
82163;SDS011;71736;38.734;-9.138;2023-08-01T14:41:55;4.80;;;2.00;;
82163;SDS011;71736;38.734;-9.138;2023-08-01T14:44:20;4.00;;;1.50;;
82163;SDS011;71736;38.734;-9.138;2023-08-01T14:46:46;2.80;;;1.30;;
82163;SDS011;71736;38.734;-9.138;2023-08-01T14:49:12;5.10;;;1.40;;
82163;SDS011;71736;38.734;-9.138;2023-08-01T14:51:37;3.30;;;1.40;;
82163;SDS011;71736;38.734;-9.138;2023-08-01T14:54:03;6.10;;;1.60;;
82163;SDS011;71736;38.734;-9.138;2023-08-01T14:56:29;3.10;;;1.90;;
82163;SDS011;71736;38.734;-9.138;2023-08-01T14:58:55;5.00;;;1.80;;